createdAt,value
2018-09-24T00:00:00.943Z,17.13
2018-09-24T00:00:14.211Z,17.12
2018-09-24T00:00:25.843Z,17.13
2018-09-24T00:00:58.562Z,17.13
2018-09-24T00:01:10.867Z,17.13
2018-09-24T00:01:22.653Z,17.13
2018-09-24T00:01:36.081Z,17.12
2018-09-24T00:01:50.914Z,17.12
2018-09-24T00:02:02.712Z,17.12
2018-09-24T00:02:14.460Z,17.12
2018-09-24T00:02:26.961Z,17.12
2018-09-24T00:02:40.263Z,17.13
2018-09-24T00:02:52.907Z,17.13
2018-09-24T00:03:07.619Z,17.12
2018-09-24T00:03:20.971Z,17.13
2018-09-24T00:03:32.732Z,17.12
2018-09-24T00:03:45.721Z,17.13
2018-09-24T00:03:59.857Z,17.13
2018-09-24T00:04:11.623Z,17.12
2018-09-24T00:04:25.554Z,17.13
2018-09-24T00:04:37.314Z,17.12
2018-09-24T00:04:49.798Z,17.12
2018-09-24T00:05:02.926Z,17.13
2018-09-24T00:05:16.820Z,17.12
2018-09-24T00:05:30.366Z,17.12
2018-09-24T00:05:47.125Z,17.13
2018-09-24T00:06:02.122Z,17.11
2018-09-24T00:06:15.164Z,17.12
2018-09-24T00:06:26.916Z,17.12
2018-09-24T00:06:38.704Z,17.12
2018-09-24T00:06:50.470Z,17.11
2018-09-24T00:07:02.392Z,17.13
2018-09-24T00:07:14.148Z,17.12
2018-09-24T00:07:25.909Z,17.12
2018-09-24T00:07:37.679Z,17.11
2018-09-24T00:07:50.174Z,17.10
2018-09-24T00:08:03.951Z,17.12
2018-09-24T00:08:18.629Z,17.11
2018-09-24T00:08:30.447Z,17.12
2018-09-24T00:08:43.758Z,17.13
2018-09-24T00:08:55.534Z,17.14
2018-09-24T00:09:07.282Z,17.14
2018-09-24T00:09:19.047Z,17.15
2018-09-24T00:09:30.790Z,17.13
2018-09-24T00:09:42.536Z,17.13
2018-09-24T00:09:54.294Z,17.13
2018-09-24T00:10:06.047Z,17.13
2018-09-24T00:10:17.808Z,17.12
2018-09-24T00:10:29.565Z,17.11
2018-09-24T00:10:41.313Z,17.11
2018-09-24T00:10:53.060Z,17.13
2018-09-24T00:11:04.830Z,17.13
2018-09-24T00:11:16.572Z,17.13
2018-09-24T00:11:28.322Z,17.13
2018-09-24T00:11:40.091Z,17.12
2018-09-24T00:11:51.842Z,17.13
2018-09-24T00:12:03.604Z,17.12
2018-09-24T00:12:15.366Z,17.12
2018-09-24T00:12:27.117Z,17.12
2018-09-24T00:12:38.859Z,17.12
2018-09-24T00:12:50.620Z,17.12
2018-09-24T00:13:02.389Z,17.11
2018-09-24T00:13:14.150Z,17.11
2018-09-24T00:13:25.899Z,17.11
2018-09-24T00:13:37.654Z,17.11
2018-09-24T00:13:49.410Z,17.11
2018-09-24T00:14:01.151Z,17.12
2018-09-24T00:14:12.901Z,17.11
2018-09-24T00:14:24.656Z,17.10
2018-09-24T00:14:36.422Z,17.11
2018-09-24T00:14:48.183Z,17.10
2018-09-24T00:14:59.940Z,17.10
2018-09-24T00:15:11.705Z,17.09
2018-09-24T00:15:23.485Z,17.11
2018-09-24T00:15:35.240Z,17.10
2018-09-24T00:15:46.998Z,17.11
2018-09-24T00:15:58.751Z,17.11
2018-09-24T00:16:10.510Z,17.10
2018-09-24T00:16:22.257Z,17.11
2018-09-24T00:16:34.143Z,17.10
2018-09-24T00:16:45.889Z,17.10
2018-09-24T00:16:57.627Z,17.10
2018-09-24T00:17:09.366Z,17.11
2018-09-24T00:17:21.150Z,17.10
2018-09-24T00:17:32.947Z,17.11
2018-09-24T00:17:44.695Z,17.11
2018-09-24T00:17:56.442Z,17.12
2018-09-24T00:18:08.198Z,17.12
2018-09-24T00:18:19.956Z,17.12
2018-09-24T00:18:31.729Z,17.12
2018-09-24T00:18:43.476Z,17.12
2018-09-24T00:18:55.257Z,17.11
2018-09-24T00:19:07.018Z,17.11
2018-09-24T00:19:18.785Z,17.11
2018-09-24T00:19:30.551Z,17.12
2018-09-24T00:19:42.378Z,17.11
2018-09-24T00:19:54.140Z,17.11
2018-09-24T00:20:05.898Z,17.11
2018-09-24T00:20:17.670Z,17.11
2018-09-24T00:20:29.438Z,17.10
2018-09-24T00:20:41.216Z,17.11
2018-09-24T00:20:52.976Z,17.11
2018-09-24T00:21:04.843Z,17.12
2018-09-24T00:21:16.599Z,17.12
2018-09-24T00:21:28.816Z,17.13
2018-09-24T00:21:40.597Z,17.12
2018-09-24T00:21:52.374Z,17.11
2018-09-24T00:22:04.134Z,17.12
2018-09-24T00:22:15.894Z,17.11
2018-09-24T00:22:27.639Z,17.12
2018-09-24T00:22:39.390Z,17.11
2018-09-24T00:22:51.187Z,17.11
2018-09-24T00:23:02.949Z,17.11
2018-09-24T00:23:14.716Z,17.11
2018-09-24T00:23:26.483Z,17.12
2018-09-24T00:23:38.226Z,17.11
2018-09-24T00:23:50.012Z,17.12
2018-09-24T00:24:01.790Z,17.11
2018-09-24T00:24:13.542Z,17.11
2018-09-24T00:24:25.302Z,17.12
2018-09-24T00:24:37.081Z,17.11
2018-09-24T00:24:48.839Z,17.11
2018-09-24T00:25:00.619Z,17.11
2018-09-24T00:25:12.400Z,17.10
2018-09-24T00:25:24.145Z,17.11
2018-09-24T00:25:35.899Z,17.09
2018-09-24T00:25:47.661Z,17.10
2018-09-24T00:25:59.444Z,17.10
2018-09-24T00:26:11.206Z,17.10
2018-09-24T00:26:22.958Z,17.10
2018-09-24T00:26:34.744Z,17.10
2018-09-24T00:26:46.515Z,17.10
2018-09-24T00:26:58.328Z,17.10
2018-09-24T00:27:10.081Z,17.10
2018-09-24T00:27:21.848Z,17.11
2018-09-24T00:27:33.598Z,17.10
2018-09-24T00:27:45.348Z,17.10
2018-09-24T00:27:57.097Z,17.11
2018-09-24T00:28:08.851Z,17.10
2018-09-24T00:28:20.602Z,17.10
2018-09-24T00:28:32.352Z,17.10
2018-09-24T00:28:44.102Z,17.10
2018-09-24T00:28:55.856Z,17.11
2018-09-24T00:29:07.615Z,17.10
2018-09-24T00:29:19.358Z,17.10
2018-09-24T00:29:31.114Z,17.11
2018-09-24T00:29:42.855Z,17.12
2018-09-24T00:29:54.883Z,17.10
2018-09-24T00:30:06.633Z,17.11
2018-09-24T00:30:18.386Z,17.10
2018-09-24T00:30:30.147Z,17.10
2018-09-24T00:30:41.915Z,17.11
2018-09-24T00:30:53.671Z,17.10
2018-09-24T00:31:05.441Z,17.10
2018-09-24T00:31:17.200Z,17.11
2018-09-24T00:31:28.955Z,17.10
2018-09-24T00:31:40.702Z,17.11
2018-09-24T00:31:52.465Z,17.11
2018-09-24T00:32:04.215Z,17.11
2018-09-24T00:32:15.958Z,17.11
2018-09-24T00:32:27.724Z,17.11
2018-09-24T00:32:39.466Z,17.11
2018-09-24T00:32:51.220Z,17.11
2018-09-24T00:33:02.977Z,17.10
2018-09-24T00:33:14.888Z,17.10
2018-09-24T00:33:26.626Z,17.12
2018-09-24T00:33:38.388Z,17.12
2018-09-24T00:33:50.170Z,17.11
2018-09-24T00:34:01.916Z,17.11
2018-09-24T00:34:13.681Z,17.10
2018-09-24T00:34:25.442Z,17.10
2018-09-24T00:34:37.186Z,17.10
2018-09-24T00:34:48.934Z,17.10
2018-09-24T00:35:00.700Z,17.10
2018-09-24T00:35:12.456Z,17.10
2018-09-24T00:35:24.247Z,17.11
2018-09-24T00:35:36.027Z,17.10
2018-09-24T00:35:47.790Z,17.11
2018-09-24T00:35:59.714Z,17.12
2018-09-24T00:36:11.469Z,17.11
2018-09-24T00:36:23.229Z,17.12
2018-09-24T00:36:34.969Z,17.11
2018-09-24T00:36:46.758Z,17.11
2018-09-24T00:36:58.540Z,17.12
2018-09-24T00:37:10.286Z,17.12
2018-09-24T00:37:22.042Z,17.12
2018-09-24T00:37:33.794Z,17.12
2018-09-24T00:37:45.548Z,17.11
2018-09-24T00:37:57.321Z,17.12
2018-09-24T00:38:09.072Z,17.11
2018-09-24T00:38:20.824Z,17.11
2018-09-24T00:38:32.592Z,17.11
2018-09-24T00:38:44.351Z,17.11
2018-09-24T00:38:56.133Z,17.11
2018-09-24T00:39:07.890Z,17.11
2018-09-24T00:39:19.652Z,17.10
2018-09-24T00:39:31.428Z,17.11
2018-09-24T00:39:43.180Z,17.10
2018-09-24T00:39:54.916Z,17.10
2018-09-24T00:40:06.668Z,17.11
2018-09-24T00:40:18.436Z,17.11
2018-09-24T00:40:30.230Z,17.11
2018-09-24T00:40:42.159Z,17.11
2018-09-24T00:40:53.911Z,17.10
2018-09-24T00:41:05.658Z,17.10
2018-09-24T00:41:17.418Z,17.10
2018-09-24T00:41:29.171Z,17.09
2018-09-24T00:41:40.915Z,17.10
2018-09-24T00:41:52.674Z,17.10
2018-09-24T00:42:04.444Z,17.09
2018-09-24T00:42:16.204Z,17.10
2018-09-24T00:42:27.951Z,17.10
2018-09-24T00:42:39.806Z,17.10
2018-09-24T00:42:51.567Z,17.10
2018-09-24T00:43:03.341Z,17.10
2018-09-24T00:43:15.165Z,17.10
2018-09-24T00:43:26.886Z,17.09
2018-09-24T00:43:38.824Z,17.10
2018-09-24T00:43:50.494Z,17.10
2018-09-24T00:44:02.217Z,17.11
2018-09-24T00:44:13.962Z,17.10
2018-09-24T00:44:25.736Z,17.10
2018-09-24T00:44:37.483Z,17.10
2018-09-24T00:44:49.232Z,17.10
2018-09-24T00:45:00.995Z,17.10
2018-09-24T00:45:12.760Z,17.10
2018-09-24T00:45:24.517Z,17.10
2018-09-24T00:45:36.356Z,17.09
2018-09-24T00:45:48.121Z,17.10
2018-09-24T00:45:59.891Z,17.09
2018-09-24T00:46:11.635Z,17.11
2018-09-24T00:46:23.384Z,17.10
2018-09-24T00:46:35.436Z,17.10
2018-09-24T00:46:47.188Z,17.10
2018-09-24T00:46:58.942Z,17.10
2018-09-24T00:47:10.687Z,17.10
2018-09-24T00:47:22.447Z,17.09
2018-09-24T00:47:34.220Z,17.09
2018-09-24T00:47:45.966Z,17.09
2018-09-24T00:47:57.712Z,17.10
2018-09-24T00:48:09.464Z,17.09
2018-09-24T00:48:21.211Z,17.08
2018-09-24T00:48:32.955Z,17.09
2018-09-24T00:48:44.715Z,17.08
2018-09-24T00:48:56.476Z,17.09
2018-09-24T00:49:08.230Z,17.09
2018-09-24T00:49:19.993Z,17.10
2018-09-24T00:49:31.746Z,17.08
2018-09-24T00:49:43.510Z,17.09
2018-09-24T00:49:55.288Z,17.08
2018-09-24T00:50:07.038Z,17.08
2018-09-24T00:50:18.790Z,17.08
2018-09-24T00:50:30.559Z,17.08
2018-09-24T00:50:42.311Z,17.09
2018-09-24T00:50:54.058Z,17.08
2018-09-24T00:51:05.804Z,17.08
2018-09-24T00:51:17.560Z,17.07
2018-09-24T00:51:29.306Z,17.08
2018-09-24T00:51:41.056Z,17.08
2018-09-24T00:51:52.838Z,17.08
2018-09-24T00:52:04.631Z,17.06
2018-09-24T00:52:16.400Z,17.07
2018-09-24T00:52:28.142Z,17.06
2018-09-24T00:52:39.895Z,17.08
2018-09-24T00:52:52.071Z,17.08
2018-09-24T00:53:03.818Z,17.08
2018-09-24T00:53:15.572Z,17.07
2018-09-24T00:53:27.331Z,17.08
2018-09-24T00:53:39.082Z,17.07
2018-09-24T00:53:50.818Z,17.08
2018-09-24T00:54:02.564Z,17.08
2018-09-24T00:54:14.322Z,17.07
2018-09-24T00:54:26.076Z,17.07
2018-09-24T00:54:37.837Z,17.08
2018-09-24T00:54:49.589Z,17.07
2018-09-24T00:55:01.344Z,17.08
2018-09-24T00:55:13.104Z,17.08
2018-09-24T00:55:24.882Z,17.07
2018-09-24T00:55:36.843Z,17.07
2018-09-24T00:55:48.588Z,17.06
2018-09-24T00:56:00.344Z,17.07
2018-09-24T00:56:12.100Z,17.09
2018-09-24T00:56:23.862Z,17.08
2018-09-24T00:56:35.616Z,17.08
2018-09-24T00:56:47.357Z,17.08
2018-09-24T00:56:59.117Z,17.08
2018-09-24T00:57:10.879Z,17.09
2018-09-24T00:57:22.619Z,17.08
2018-09-24T00:57:34.368Z,17.09
2018-09-24T00:57:46.210Z,17.08
2018-09-24T00:57:57.972Z,17.08
2018-09-24T00:58:09.725Z,17.08
2018-09-24T00:58:21.469Z,17.08
2018-09-24T00:58:33.227Z,17.08
2018-09-24T00:58:44.975Z,17.08
2018-09-24T00:58:56.753Z,17.09
2018-09-24T00:59:08.534Z,17.08
2018-09-24T00:59:20.304Z,17.08
2018-09-24T00:59:32.055Z,17.08
2018-09-24T00:59:43.794Z,17.09
2018-09-24T00:59:55.541Z,17.08
2018-09-24T01:00:07.484Z,17.08
2018-09-24T01:00:19.238Z,17.09
2018-09-24T01:00:31.005Z,17.08
2018-09-24T01:00:42.743Z,17.10
2018-09-24T01:00:54.491Z,17.08
2018-09-24T01:01:06.222Z,17.07
2018-09-24T01:01:17.963Z,17.08
2018-09-24T01:01:29.715Z,17.08
2018-09-24T01:01:41.488Z,17.08
2018-09-24T01:01:53.265Z,17.08
2018-09-24T01:02:05.028Z,17.08
2018-09-24T01:02:16.795Z,17.08
2018-09-24T01:02:28.552Z,17.07
2018-09-24T01:02:40.315Z,17.08
2018-09-24T01:02:52.079Z,17.08
2018-09-24T01:03:03.840Z,17.06
2018-09-24T01:03:15.595Z,17.07
2018-09-24T01:03:27.338Z,17.06
2018-09-24T01:03:39.094Z,17.08
2018-09-24T01:03:50.856Z,17.08
2018-09-24T01:04:02.607Z,17.07
2018-09-24T01:04:14.346Z,17.08
2018-09-24T01:04:26.099Z,17.07
2018-09-24T01:04:37.850Z,17.07
2018-09-24T01:04:49.593Z,17.06
2018-09-24T01:05:01.348Z,17.07
2018-09-24T01:05:13.104Z,17.07
2018-09-24T01:05:24.867Z,17.08
2018-09-24T01:05:36.677Z,17.07
2018-09-24T01:05:48.560Z,17.08
2018-09-24T01:06:00.316Z,17.07
2018-09-24T01:06:12.073Z,17.08
2018-09-24T01:06:23.826Z,17.08
2018-09-24T01:06:35.571Z,17.08
2018-09-24T01:06:47.328Z,17.08
2018-09-24T01:06:59.103Z,17.08
2018-09-24T01:07:10.851Z,17.07
2018-09-24T01:07:22.594Z,17.10
2018-09-24T01:07:34.334Z,17.08
2018-09-24T01:07:46.239Z,17.09
2018-09-24T01:07:57.987Z,17.07
2018-09-24T01:08:09.732Z,17.08
2018-09-24T01:08:21.482Z,17.06
2018-09-24T01:08:33.229Z,17.08
2018-09-24T01:08:44.989Z,17.09
2018-09-24T01:08:56.874Z,17.09
2018-09-24T01:09:09.362Z,17.08
2018-09-24T01:09:22.341Z,17.09
2018-09-24T01:09:34.076Z,17.07
2018-09-24T01:09:46.140Z,17.07
2018-09-24T01:09:57.932Z,17.06
2018-09-24T01:10:09.683Z,17.08
2018-09-24T01:10:21.426Z,17.07
2018-09-24T01:10:33.188Z,17.06
2018-09-24T01:10:44.951Z,17.07
2018-09-24T01:10:56.706Z,17.07
2018-09-24T01:11:08.454Z,17.06
2018-09-24T01:11:20.245Z,17.07
2018-09-24T01:11:31.996Z,17.06
2018-09-24T01:11:43.755Z,17.06
2018-09-24T01:11:55.511Z,17.08
2018-09-24T01:12:07.568Z,17.06
2018-09-24T01:12:19.306Z,17.06
2018-09-24T01:12:31.046Z,17.08
2018-09-24T01:12:42.793Z,17.07
2018-09-24T01:12:54.556Z,17.07
2018-09-24T01:13:06.325Z,17.06
2018-09-24T01:13:18.070Z,17.06
2018-09-24T01:13:29.818Z,17.06
2018-09-24T01:13:41.579Z,17.06
2018-09-24T01:13:53.335Z,17.06
2018-09-24T01:14:05.096Z,17.06
2018-09-24T01:14:16.856Z,17.06
2018-09-24T01:14:28.599Z,17.06
2018-09-24T01:14:40.349Z,17.06
2018-09-24T01:14:52.098Z,17.06
2018-09-24T01:15:03.864Z,17.07
2018-09-24T01:15:15.620Z,17.07
2018-09-24T01:15:27.378Z,17.06
2018-09-24T01:15:39.135Z,17.08
2018-09-24T01:15:50.905Z,17.06
2018-09-24T01:16:02.723Z,17.05
2018-09-24T01:16:14.485Z,17.05
2018-09-24T01:16:26.247Z,17.05
2018-09-24T01:16:38.042Z,17.05
2018-09-24T01:16:49.820Z,17.06
2018-09-24T01:17:01.594Z,17.05
2018-09-24T01:17:13.352Z,17.04
2018-09-24T01:17:25.093Z,17.05
2018-09-24T01:17:36.848Z,17.05
2018-09-24T01:17:48.591Z,17.05
2018-09-24T01:18:00.339Z,17.05
2018-09-24T01:18:12.101Z,17.05
2018-09-24T01:18:23.862Z,17.05
2018-09-24T01:18:35.598Z,17.06
2018-09-24T01:18:47.371Z,17.04
2018-09-24T01:18:59.124Z,17.05
2018-09-24T01:19:10.869Z,17.06
2018-09-24T01:19:22.609Z,17.06
2018-09-24T01:19:34.358Z,17.06
2018-09-24T01:19:46.120Z,17.06
2018-09-24T01:19:57.894Z,17.07
2018-09-24T01:20:10.574Z,17.08
2018-09-24T01:20:22.328Z,17.08
2018-09-24T01:20:34.080Z,17.08
2018-09-24T01:20:45.836Z,17.06
2018-09-24T01:20:57.609Z,17.07
2018-09-24T01:21:09.356Z,17.08
2018-09-24T01:21:21.108Z,17.08
2018-09-24T01:21:32.874Z,17.08
2018-09-24T01:21:44.628Z,17.06
2018-09-24T01:21:56.387Z,17.05
2018-09-24T01:22:08.167Z,17.06
2018-09-24T01:22:19.935Z,17.06
2018-09-24T01:22:31.686Z,17.06
2018-09-24T01:22:43.433Z,17.07
2018-09-24T01:22:55.191Z,17.07
2018-09-24T01:23:06.929Z,17.06
2018-09-24T01:23:18.670Z,17.06
2018-09-24T01:23:30.420Z,17.06
2018-09-24T01:23:42.171Z,17.06
2018-09-24T01:23:53.928Z,17.06
2018-09-24T01:24:05.670Z,17.05
2018-09-24T01:24:17.404Z,17.06
2018-09-24T01:24:29.160Z,17.06
2018-09-24T01:24:40.896Z,17.05
2018-09-24T01:24:52.696Z,17.06
2018-09-24T01:25:04.484Z,17.06
2018-09-24T01:25:16.229Z,17.06
2018-09-24T01:25:27.988Z,17.06
2018-09-24T01:25:39.743Z,17.06
2018-09-24T01:25:51.498Z,17.05
2018-09-24T01:26:03.243Z,17.06
2018-09-24T01:26:14.995Z,17.05
2018-09-24T01:26:26.760Z,17.05
2018-09-24T01:26:38.507Z,17.05
2018-09-24T01:26:50.274Z,17.06
2018-09-24T01:27:02.035Z,17.05
2018-09-24T01:27:13.800Z,17.06
2018-09-24T01:27:26.106Z,17.06
2018-09-24T01:27:37.880Z,17.06
2018-09-24T01:27:49.668Z,17.05
2018-09-24T01:28:01.450Z,17.04
2018-09-24T01:28:13.198Z,17.05
2018-09-24T01:28:24.968Z,17.05
2018-09-24T01:28:36.706Z,17.06
2018-09-24T01:28:48.461Z,17.04
2018-09-24T01:29:00.251Z,17.05
2018-09-24T01:29:12.015Z,17.04
2018-09-24T01:29:23.764Z,17.06
2018-09-24T01:29:35.540Z,17.06
2018-09-24T01:29:47.286Z,17.06
2018-09-24T01:29:59.039Z,17.06
2018-09-24T01:30:10.791Z,17.05
2018-09-24T01:30:22.545Z,17.05
2018-09-24T01:30:34.300Z,17.04
2018-09-24T01:30:46.061Z,17.06
2018-09-24T01:30:57.815Z,17.05
2018-09-24T01:31:09.571Z,17.04
2018-09-24T01:31:21.379Z,17.04
2018-09-24T01:31:33.122Z,17.04
2018-09-24T01:31:44.875Z,17.05
2018-09-24T01:31:56.625Z,17.04
2018-09-24T01:32:08.414Z,17.05
2018-09-24T01:32:20.176Z,17.05
2018-09-24T01:32:31.936Z,17.04
2018-09-24T01:32:43.711Z,17.05
2018-09-24T01:32:55.452Z,17.05
2018-09-24T01:33:07.200Z,17.04
2018-09-24T01:33:18.950Z,17.04
2018-09-24T01:33:30.708Z,17.06
2018-09-24T01:33:42.469Z,17.05
2018-09-24T01:33:54.242Z,17.05
2018-09-24T01:34:06.001Z,17.05
2018-09-24T01:34:17.756Z,17.06
2018-09-24T01:34:29.520Z,17.05
2018-09-24T01:34:41.258Z,17.05
2018-09-24T01:34:53.009Z,17.05
2018-09-24T01:35:04.780Z,17.04
2018-09-24T01:35:16.521Z,17.04
2018-09-24T01:35:28.509Z,17.05
2018-09-24T01:35:40.264Z,17.04
2018-09-24T01:35:52.015Z,17.05
2018-09-24T01:36:03.791Z,17.05
2018-09-24T01:36:15.562Z,17.04
2018-09-24T01:36:27.311Z,17.04
2018-09-24T01:36:39.069Z,17.04
2018-09-24T01:36:50.807Z,17.05
2018-09-24T01:37:02.587Z,17.05
2018-09-24T01:37:14.363Z,17.04
2018-09-24T01:37:26.121Z,17.04
2018-09-24T01:37:37.876Z,17.03
2018-09-24T01:37:49.622Z,17.03
2018-09-24T01:38:01.371Z,17.03
2018-09-24T01:38:13.145Z,17.04
2018-09-24T01:38:24.903Z,17.04
2018-09-24T01:38:36.658Z,17.03
2018-09-24T01:38:48.489Z,17.04
2018-09-24T01:39:00.239Z,17.03
2018-09-24T01:39:12.008Z,17.04
2018-09-24T01:39:23.767Z,17.04
2018-09-24T01:39:35.535Z,17.04
2018-09-24T01:39:47.277Z,17.04
2018-09-24T01:39:59.030Z,17.04
2018-09-24T01:40:10.784Z,17.03
2018-09-24T01:40:22.541Z,17.04
2018-09-24T01:40:34.576Z,17.03
2018-09-24T01:40:46.319Z,17.03
2018-09-24T01:40:58.068Z,17.03
2018-09-24T01:41:09.907Z,17.03
2018-09-24T01:41:21.658Z,17.04
2018-09-24T01:41:33.408Z,17.04
2018-09-24T01:41:45.168Z,17.04
2018-09-24T01:41:56.939Z,17.05
2018-09-24T01:42:08.699Z,17.04
2018-09-24T01:42:20.498Z,17.04
2018-09-24T01:42:32.260Z,17.05
2018-09-24T01:42:44.013Z,17.04
2018-09-24T01:42:55.760Z,17.04
2018-09-24T01:43:07.500Z,17.04
2018-09-24T01:43:19.247Z,17.04
2018-09-24T01:43:30.999Z,17.04
2018-09-24T01:43:42.908Z,17.06
2018-09-24T01:43:54.656Z,17.05
2018-09-24T01:44:06.409Z,17.04
2018-09-24T01:44:18.175Z,17.05
2018-09-24T01:44:29.943Z,17.05
2018-09-24T01:44:41.758Z,17.04
2018-09-24T01:44:53.514Z,17.04
2018-09-24T01:45:05.270Z,17.04
2018-09-24T01:45:17.012Z,17.04
2018-09-24T01:45:28.758Z,17.04
2018-09-24T01:45:40.510Z,17.04
2018-09-24T01:45:52.277Z,17.04
2018-09-24T01:46:04.041Z,17.04
2018-09-24T01:46:15.797Z,17.04
2018-09-24T01:46:27.556Z,17.04
2018-09-24T01:46:39.325Z,17.04
2018-09-24T01:46:51.091Z,17.04
2018-09-24T01:47:02.848Z,17.05
2018-09-24T01:47:14.622Z,17.04
2018-09-24T01:47:26.399Z,17.04
2018-09-24T01:47:38.148Z,17.04
2018-09-24T01:47:49.912Z,17.04
2018-09-24T01:48:01.656Z,17.04
2018-09-24T01:48:13.406Z,17.04
2018-09-24T01:48:25.154Z,17.05
2018-09-24T01:48:36.915Z,17.04
2018-09-24T01:48:48.688Z,17.04
2018-09-24T01:49:00.451Z,17.05
2018-09-24T01:49:12.213Z,17.05
2018-09-24T01:49:23.964Z,17.05
2018-09-24T01:49:35.732Z,17.04
2018-09-24T01:49:47.564Z,17.04
2018-09-24T01:49:59.312Z,17.05
2018-09-24T01:50:11.073Z,17.04
2018-09-24T01:50:22.831Z,17.05
2018-09-24T01:50:34.993Z,17.06
2018-09-24T01:50:46.743Z,17.05
2018-09-24T01:50:58.508Z,17.06
2018-09-24T01:51:10.281Z,17.06
2018-09-24T01:51:22.032Z,17.05
2018-09-24T01:51:33.783Z,17.05
2018-09-24T01:51:45.548Z,17.06
2018-09-24T01:51:57.314Z,17.07
2018-09-24T01:52:09.074Z,17.05
2018-09-24T01:52:20.837Z,17.05
2018-09-24T01:52:32.595Z,17.05
2018-09-24T01:52:44.337Z,17.04
2018-09-24T01:52:56.085Z,17.04
2018-09-24T01:53:08.176Z,17.04
2018-09-24T01:53:19.937Z,17.03
2018-09-24T01:53:31.692Z,17.04
2018-09-24T01:53:43.454Z,17.03
2018-09-24T01:53:55.210Z,17.04
2018-09-24T01:54:07.643Z,17.04
2018-09-24T01:54:19.402Z,17.04
2018-09-24T01:54:31.383Z,17.03
2018-09-24T01:54:43.131Z,17.05
2018-09-24T01:54:54.888Z,17.04
2018-09-24T01:55:06.639Z,17.03
2018-09-24T01:55:18.399Z,17.05
2018-09-24T01:55:30.193Z,17.04
2018-09-24T01:55:41.949Z,17.05
2018-09-24T01:55:53.721Z,17.05
2018-09-24T01:56:05.469Z,17.04
2018-09-24T01:56:17.214Z,17.05
2018-09-24T01:56:28.972Z,17.05
2018-09-24T01:56:40.718Z,17.04
2018-09-24T01:56:52.483Z,17.05
2018-09-24T01:57:04.232Z,17.05
2018-09-24T01:57:18.024Z,17.04
2018-09-24T01:57:29.787Z,17.05
2018-09-24T01:57:41.533Z,17.04
2018-09-24T01:57:53.296Z,17.04
2018-09-24T01:58:05.043Z,17.05
2018-09-24T01:58:16.798Z,17.05
2018-09-24T01:58:28.550Z,17.05
2018-09-24T01:58:40.309Z,17.05
2018-09-24T01:58:52.058Z,17.04
2018-09-24T01:59:03.820Z,17.04
2018-09-24T01:59:15.572Z,17.04
2018-09-24T01:59:27.313Z,17.04
2018-09-24T01:59:39.066Z,17.04
2018-09-24T01:59:51.750Z,17.05
2018-09-24T02:00:03.518Z,17.05
2018-09-24T02:00:15.263Z,17.04
2018-09-24T02:00:27.008Z,17.05
2018-09-24T02:00:38.761Z,17.04
2018-09-24T02:00:50.528Z,17.04
2018-09-24T02:01:02.275Z,17.04
2018-09-24T02:01:14.033Z,17.04
2018-09-24T02:01:25.786Z,17.04
2018-09-24T02:01:37.538Z,17.04
2018-09-24T02:01:49.290Z,17.03
2018-09-24T02:02:01.054Z,17.04
2018-09-24T02:02:12.794Z,17.04
2018-09-24T02:02:24.550Z,17.04
2018-09-24T02:02:36.343Z,17.05
2018-09-24T02:02:48.099Z,17.05
2018-09-24T02:02:59.858Z,17.05
2018-09-24T02:03:11.610Z,17.05
2018-09-24T02:03:23.362Z,17.04
2018-09-24T02:03:35.863Z,17.05
2018-09-24T02:03:47.618Z,17.05
2018-09-24T02:03:59.363Z,17.04
2018-09-24T02:04:11.114Z,17.04
2018-09-24T02:04:22.905Z,17.04
2018-09-24T02:04:34.651Z,17.04
2018-09-24T02:04:46.518Z,17.04
2018-09-24T02:04:58.271Z,17.04
2018-09-24T02:05:10.012Z,17.04
2018-09-24T02:05:21.772Z,17.04
2018-09-24T02:05:33.523Z,17.04
2018-09-24T02:05:45.289Z,17.04
2018-09-24T02:05:57.035Z,17.04
2018-09-24T02:06:08.794Z,17.04
2018-09-24T02:06:20.574Z,17.04
2018-09-24T02:06:32.320Z,17.05
2018-09-24T02:06:44.084Z,17.04
2018-09-24T02:06:59.634Z,17.05
2018-09-24T02:07:11.382Z,17.04
2018-09-24T02:07:23.159Z,17.04
2018-09-24T02:07:34.919Z,17.05
2018-09-24T02:07:46.679Z,17.05
2018-09-24T02:07:58.435Z,17.05
2018-09-24T02:08:10.170Z,17.04
2018-09-24T02:08:21.945Z,17.05
2018-09-24T02:08:33.694Z,17.04
2018-09-24T02:08:45.458Z,17.04
2018-09-24T02:08:57.212Z,17.04
2018-09-24T02:09:08.969Z,17.04
2018-09-24T02:09:20.723Z,17.05
2018-09-24T02:09:32.471Z,17.05
2018-09-24T02:09:44.711Z,17.03
2018-09-24T02:09:56.459Z,17.04
2018-09-24T02:10:08.205Z,17.03
2018-09-24T02:10:21.970Z,17.03
2018-09-24T02:10:33.716Z,17.04
2018-09-24T02:10:45.476Z,17.03
2018-09-24T02:10:57.209Z,17.04
2018-09-24T02:11:08.959Z,17.04
2018-09-24T02:11:20.705Z,17.04
2018-09-24T02:11:32.461Z,17.04
2018-09-24T02:11:44.431Z,17.05
2018-09-24T02:11:56.178Z,17.04
2018-09-24T02:12:08.176Z,17.04
2018-09-24T02:12:19.939Z,17.05
2018-09-24T02:12:31.704Z,17.05
2018-09-24T02:12:43.441Z,17.05
2018-09-24T02:12:56.400Z,17.06
2018-09-24T02:13:08.143Z,17.04
2018-09-24T02:13:19.895Z,17.05
2018-09-24T02:13:31.640Z,17.04
2018-09-24T02:13:43.383Z,17.03
2018-09-24T02:13:55.130Z,17.03
2018-09-24T02:14:06.871Z,17.04
2018-09-24T02:14:18.624Z,17.03
2018-09-24T02:14:30.384Z,17.04
2018-09-24T02:14:42.144Z,17.03
2018-09-24T02:14:53.897Z,17.03
2018-09-24T02:15:05.660Z,17.03
2018-09-24T02:15:17.406Z,17.03
2018-09-24T02:15:31.332Z,17.03
2018-09-24T02:15:43.078Z,17.03
2018-09-24T02:15:54.825Z,17.03
2018-09-24T02:16:06.581Z,17.03
2018-09-24T02:16:18.733Z,17.03
2018-09-24T02:16:30.489Z,17.04
2018-09-24T02:16:42.248Z,17.02
2018-09-24T02:16:54.001Z,17.03
2018-09-24T02:17:05.760Z,17.02
2018-09-24T02:17:18.655Z,17.02
2018-09-24T02:17:30.419Z,17.02
2018-09-24T02:17:42.163Z,17.02
2018-09-24T02:17:53.945Z,17.03
2018-09-24T02:18:05.711Z,17.03
2018-09-24T02:18:17.464Z,17.03
2018-09-24T02:18:29.217Z,17.02
2018-09-24T02:18:40.977Z,17.02
2018-09-24T02:18:52.730Z,17.02
2018-09-24T02:19:04.492Z,17.02
2018-09-24T02:19:16.276Z,17.03
2018-09-24T02:19:28.029Z,17.03
2018-09-24T02:19:39.794Z,17.03
2018-09-24T02:19:52.057Z,17.04
2018-09-24T02:20:03.798Z,17.03
2018-09-24T02:20:15.547Z,17.04
2018-09-24T02:20:27.301Z,17.04
2018-09-24T02:20:39.063Z,17.03
2018-09-24T02:20:50.814Z,17.03
2018-09-24T02:21:02.591Z,17.04
2018-09-24T02:21:14.342Z,17.04
2018-09-24T02:21:26.093Z,17.03
2018-09-24T02:21:37.845Z,17.02
2018-09-24T02:21:49.593Z,17.02
2018-09-24T02:22:01.348Z,17.03
2018-09-24T02:22:13.320Z,17.01
2018-09-24T02:22:25.072Z,17.01
2018-09-24T02:22:36.831Z,17.01
2018-09-24T02:22:48.578Z,17.01
2018-09-24T02:23:00.336Z,17.01
2018-09-24T02:23:12.089Z,17.02
2018-09-24T02:23:23.839Z,17.01
2018-09-24T02:23:35.599Z,17.02
2018-09-24T02:23:47.356Z,17.01
2018-09-24T02:23:59.101Z,17.01
2018-09-24T02:24:10.914Z,17.01
2018-09-24T02:24:22.659Z,17.02
2018-09-24T02:24:34.411Z,17.02
2018-09-24T02:24:46.175Z,17.02
2018-09-24T02:24:58.954Z,17.03
2018-09-24T02:25:10.722Z,17.03
2018-09-24T02:25:22.484Z,17.02
2018-09-24T02:25:34.232Z,17.03
2018-09-24T02:25:46.157Z,17.04
2018-09-24T02:25:57.910Z,17.02
2018-09-24T02:26:09.899Z,17.03
2018-09-24T02:26:21.626Z,17.02
2018-09-24T02:26:33.381Z,17.03
2018-09-24T02:26:45.134Z,17.03
2018-09-24T02:26:56.873Z,17.03
2018-09-24T02:27:09.388Z,17.03
2018-09-24T02:27:21.144Z,17.04
2018-09-24T02:27:32.926Z,17.03
2018-09-24T02:27:44.681Z,17.03
2018-09-24T02:27:56.447Z,17.03
2018-09-24T02:28:08.196Z,17.03
2018-09-24T02:28:19.956Z,17.03
2018-09-24T02:28:31.691Z,17.03
2018-09-24T02:28:43.442Z,17.02
2018-09-24T02:28:55.212Z,17.03
2018-09-24T02:29:06.977Z,17.02
2018-09-24T02:29:18.714Z,17.03
2018-09-24T02:29:30.459Z,17.03
2018-09-24T02:29:42.206Z,17.02
2018-09-24T02:29:53.958Z,17.02
2018-09-24T02:30:05.702Z,17.02
2018-09-24T02:30:18.536Z,17.02
2018-09-24T02:30:30.292Z,17.02
2018-09-24T02:30:42.068Z,17.03
2018-09-24T02:30:53.818Z,17.02
2018-09-24T02:31:05.575Z,17.02
2018-09-24T02:31:17.327Z,17.02
2018-09-24T02:31:29.116Z,17.01
2018-09-24T02:31:40.867Z,17.01
2018-09-24T02:31:52.627Z,17.01
2018-09-24T02:32:04.378Z,17.02
2018-09-24T02:32:16.123Z,17.03
2018-09-24T02:32:27.896Z,17.02
2018-09-24T02:32:39.656Z,17.02
2018-09-24T02:32:51.412Z,17.01